KODX

Evelyn Sharp Field Airport

Ord, Nebraska, USA
METAR KODX 112353Z AUTO 30013KT 10SM CLR 00/M03 A2988 RMK AO2 SLP150 T00001028 10033 21006 51009
Observed Flight Rules
Dec-11 @ 23:53 UTC (50 minutes ago) Visual Flight Rules
Wind Visibility Clouds
300° at 13 knots 10 miles
  • Clear skies
Temperatures Readings
Current 0°C / 32°F
Dewpoint -3°C / 27°F
Humidity 80%
Altimeter 29.88" Hg
Pressure 1015 hPa
Elevation 631
METAR KODX 112353Z AUTO 30013KT 10SM CLR 00/M03 A2988 RMK AO2 SLP150 T00001028 10033 21006 51009
Observed Flight Rules
Dec-11 @ 23:53 UTC
(50 minutes ago)
VFR
Wind Visibility
300° at 13 knots 10 miles
Clouds
  • Clear skies
Temperature Dewpoint
0°C / 32°F -3°C / 27°F
Humidity Altimeter Pressure
80% 29.88" Hg 1015 hPa